createdAt,value
2019-02-08T00:02:07.351Z,99.90
2019-02-08T00:04:38.161Z,99.90
2019-02-08T00:07:09.199Z,99.90
2019-02-08T00:09:40.210Z,99.90
2019-02-08T00:12:09.835Z,99.90
2019-02-08T00:14:40.338Z,99.90
2019-02-08T00:17:12.355Z,99.90
2019-02-08T00:19:42.015Z,99.90
2019-02-08T00:22:11.852Z,99.90
2019-02-08T00:24:41.349Z,99.90
2019-02-08T00:27:10.908Z,99.90
2019-02-08T00:29:43.236Z,99.90
2019-02-08T00:32:13.566Z,99.90
2019-02-08T00:34:44.267Z,99.90
2019-02-08T00:37:14.125Z,99.90
2019-02-08T00:39:44.233Z,99.90
2019-02-08T00:42:14.147Z,99.90
2019-02-08T00:44:45.340Z,99.90
2019-02-08T00:47:14.827Z,99.90
2019-02-08T00:49:45.386Z,99.90
2019-02-08T00:52:14.946Z,99.90
2019-02-08T00:54:44.767Z,99.90
2019-02-08T00:57:19.420Z,99.90
2019-02-08T00:59:50.006Z,99.90
2019-02-08T01:02:19.514Z,99.90
2019-02-08T01:04:49.825Z,99.90
2019-02-08T01:07:20.062Z,99.90
2019-02-08T01:09:50.013Z,99.90
2019-02-08T01:12:19.530Z,99.90
2019-02-08T01:14:48.983Z,99.90
2019-02-08T01:17:18.719Z,99.90
2019-02-08T01:19:48.622Z,99.90
2019-02-08T01:22:19.302Z,99.90
2019-02-08T01:24:48.800Z,99.90
2019-02-08T01:27:18.538Z,99.90
2019-02-08T01:29:48.003Z,99.90
2019-02-08T01:32:17.579Z,99.90
2019-02-08T01:34:47.259Z,99.90
2019-02-08T01:37:16.837Z,99.90
2019-02-08T01:39:52.128Z,99.90
2019-02-08T01:42:21.912Z,99.90
2019-02-08T01:44:51.496Z,99.90
2019-02-08T01:47:22.292Z,99.90
2019-02-08T01:49:52.630Z,99.90
2019-02-08T01:52:22.186Z,99.90
2019-02-08T01:54:52.108Z,99.90
2019-02-08T01:57:21.707Z,99.90
2019-02-08T01:59:51.345Z,99.90
2019-02-08T02:02:20.883Z,99.90
2019-02-08T02:04:55.383Z,99.90
2019-02-08T02:07:25.021Z,99.90
2019-02-08T02:09:57.005Z,99.90
2019-02-08T02:12:26.978Z,99.90
2019-02-08T02:14:56.506Z,99.90
2019-02-08T02:17:25.991Z,99.90
2019-02-08T02:19:55.452Z,99.90
2019-02-08T02:22:24.893Z,99.90
2019-02-08T02:24:55.472Z,99.90
2019-02-08T02:27:26.159Z,99.90
2019-02-08T02:29:55.908Z,99.90
2019-02-08T02:32:25.991Z,99.90
2019-02-08T02:34:55.791Z,99.90
2019-02-08T02:37:25.359Z,99.90
2019-02-08T02:39:55.188Z,99.90
2019-02-08T02:42:28.561Z,99.90
2019-02-08T02:45:00.681Z,99.90
2019-02-08T02:47:32.265Z,99.90
2019-02-08T02:50:02.480Z,99.90
2019-02-08T02:52:31.911Z,99.90
2019-02-08T02:55:02.847Z,99.90
2019-02-08T02:57:36.234Z,99.90
2019-02-08T03:00:10.786Z,99.90
2019-02-08T03:02:40.688Z,99.90
2019-02-08T03:05:12.112Z,99.90
2019-02-08T03:07:44.329Z,99.90
2019-02-08T03:10:17.350Z,99.90
2019-02-08T03:12:46.936Z,99.90
2019-02-08T03:15:18.902Z,99.90
2019-02-08T03:17:50.985Z,99.90
2019-02-08T03:20:21.930Z,99.90
2019-02-08T03:22:51.696Z,99.90
2019-02-08T03:25:23.659Z,99.90
2019-02-08T03:27:53.637Z,99.90
2019-02-08T03:30:33.575Z,99.90
2019-02-08T03:33:11.002Z,99.90
2019-02-08T03:35:40.601Z,99.90
2019-02-08T03:38:12.073Z,99.90
2019-02-08T03:40:41.676Z,99.90
2019-02-08T03:43:12.172Z,99.90
2019-02-08T03:45:42.837Z,99.90
2019-02-08T03:48:12.911Z,99.90
2019-02-08T03:50:42.718Z,99.90
2019-02-08T03:53:12.604Z,99.90
2019-02-08T03:55:44.126Z,99.90
2019-02-08T03:58:13.680Z,99.90
2019-02-08T04:00:52.971Z,99.90
2019-02-08T04:03:22.510Z,99.90
2019-02-08T04:05:52.327Z,99.90
2019-02-08T04:08:22.342Z,99.90
2019-02-08T04:10:52.015Z,99.90
2019-02-08T04:13:22.019Z,99.90
2019-02-08T04:15:51.851Z,99.90
2019-02-08T04:18:21.361Z,99.90
2019-02-08T04:20:51.950Z,99.90
2019-02-08T04:23:22.121Z,99.90
2019-02-08T04:25:54.033Z,99.90
2019-02-08T04:28:23.469Z,99.90
2019-02-08T04:30:52.982Z,99.90
2019-02-08T04:33:22.399Z,99.90
2019-02-08T04:35:52.017Z,99.90
2019-02-08T04:38:21.538Z,99.90
2019-02-08T04:40:52.176Z,99.90
2019-02-08T04:43:22.500Z,99.90
2019-02-08T04:45:54.623Z,99.90
2019-02-08T04:48:24.147Z,99.90
2019-02-08T04:50:53.654Z,99.90
2019-02-08T04:53:23.146Z,99.90
2019-02-08T04:55:53.710Z,99.90
2019-02-08T04:58:25.458Z,99.90
2019-02-08T05:00:56.176Z,99.90
2019-02-08T05:03:26.001Z,99.90
2019-02-08T05:05:58.434Z,99.90
2019-02-08T05:08:38.729Z,99.90
2019-02-08T05:11:09.688Z,99.90
2019-02-08T05:13:39.149Z,99.90
2019-02-08T05:16:11.582Z,99.90
2019-02-08T05:18:42.228Z,99.90
2019-02-08T05:21:15.334Z,99.90
2019-02-08T05:23:44.842Z,99.90
2019-02-08T05:26:14.417Z,99.90
2019-02-08T05:28:44.961Z,99.90
2019-02-08T05:31:14.380Z,99.90
2019-02-08T05:33:43.957Z,99.90
2019-02-08T05:36:13.502Z,99.90
2019-02-08T05:38:45.597Z,99.90
2019-02-08T05:41:15.138Z,99.90
2019-02-08T05:43:44.638Z,99.90
2019-02-08T05:46:14.342Z,99.90
2019-02-08T05:48:43.820Z,99.90
2019-02-08T05:51:13.918Z,99.90
2019-02-08T05:53:43.856Z,99.90
2019-02-08T05:56:13.333Z,99.90
2019-02-08T05:58:44.480Z,99.90
2019-02-08T06:01:15.060Z,99.90
2019-02-08T06:03:44.699Z,99.90
2019-02-08T06:06:14.270Z,99.90
2019-02-08T06:08:46.367Z,99.90
2019-02-08T06:11:19.095Z,99.90
2019-02-08T06:13:49.320Z,99.90
2019-02-08T06:16:18.856Z,99.90
2019-02-08T06:18:51.089Z,99.90
2019-02-08T06:21:20.638Z,99.90
2019-02-08T06:23:50.088Z,99.90
2019-02-08T06:26:22.039Z,99.90
2019-02-08T06:28:51.449Z,99.90
2019-02-08T06:31:22.006Z,99.90
2019-02-08T06:33:51.443Z,99.90
2019-02-08T06:36:24.416Z,99.90
2019-02-08T06:38:56.292Z,99.90
2019-02-08T06:41:25.778Z,99.90
2019-02-08T06:43:57.282Z,99.90
2019-02-08T06:46:27.027Z,99.90
2019-02-08T06:48:56.728Z,99.90
2019-02-08T06:51:27.216Z,99.90
2019-02-08T06:53:56.983Z,99.90
2019-02-08T06:56:43.869Z,99.90
2019-02-08T06:59:35.605Z,99.90
2019-02-08T07:02:24.136Z,99.90
2019-02-08T07:05:19.649Z,99.90
2019-02-08T07:08:11.151Z,99.90
2019-02-08T07:11:22.446Z,99.90
2019-02-08T07:14:09.281Z,99.90
2019-02-08T07:17:06.280Z,99.90
2019-02-08T07:23:12.522Z,99.90
2019-02-08T07:26:12.941Z,99.90
2019-02-08T07:29:07.195Z,99.90
2019-02-08T07:31:55.714Z,99.90
2019-02-08T07:34:53.538Z,99.90
2019-02-08T07:37:40.574Z,99.90
2019-02-08T07:40:27.591Z,99.90
2019-02-08T07:43:15.826Z,99.90
2019-02-08T07:46:05.630Z,99.90
2019-02-08T07:48:45.314Z,99.90
2019-02-08T07:51:25.146Z,99.90
2019-02-08T07:54:14.862Z,99.90
2019-02-08T07:56:52.944Z,99.90
2019-02-08T07:59:45.751Z,99.90
2019-02-08T08:02:33.345Z,99.90
2019-02-08T08:05:18.879Z,99.90
2019-02-08T08:08:09.133Z,99.90
2019-02-08T08:11:04.950Z,99.90
2019-02-08T08:13:46.031Z,99.90
2019-02-08T08:16:29.382Z,99.90
2019-02-08T08:19:17.801Z,99.90
2019-02-08T08:21:59.226Z,99.90
2019-02-08T08:24:53.077Z,99.90
2019-02-08T08:27:48.278Z,99.90
2019-02-08T08:30:30.306Z,99.90
2019-02-08T08:33:18.623Z,99.90
2019-02-08T08:36:35.203Z,99.90
2019-02-08T08:39:39.123Z,99.90
2019-02-08T08:43:00.379Z,99.90
2019-02-08T08:46:06.170Z,99.90
2019-02-08T08:49:21.404Z,99.90
2019-02-08T08:52:46.890Z,99.90
2019-02-08T08:55:47.186Z,99.90
2019-02-08T08:58:51.757Z,99.90
2019-02-08T09:01:51.522Z,99.90
2019-02-08T09:04:43.800Z,99.90
2019-02-08T09:08:13.629Z,99.90
2019-02-08T09:11:08.617Z,99.90
2019-02-08T09:14:13.601Z,99.90
2019-02-08T09:17:28.826Z,99.90
2019-02-08T09:20:39.730Z,99.90
2019-02-08T09:23:51.880Z,99.90
2019-02-08T09:26:54.398Z,99.90
2019-02-08T09:29:56.247Z,99.90
2019-02-08T09:32:45.258Z,99.90
2019-02-08T09:35:52.323Z,99.90
2019-02-08T09:38:59.680Z,99.90
2019-02-08T09:42:12.111Z,99.90
2019-02-08T09:45:10.723Z,99.90
2019-02-08T09:48:24.132Z,99.90
2019-02-08T09:51:34.265Z,99.90
2019-02-08T09:54:46.821Z,99.90
2019-02-08T09:58:10.038Z,99.90
2019-02-08T10:01:16.229Z,99.90
2019-02-08T10:04:34.353Z,99.90
2019-02-08T10:07:40.282Z,99.90
2019-02-08T10:10:53.780Z,99.90
2019-02-08T10:13:48.829Z,99.90
2019-02-08T10:16:58.372Z,99.90
2019-02-08T10:20:04.832Z,99.90
2019-02-08T10:23:18.696Z,99.90
2019-02-08T10:26:22.427Z,99.90
2019-02-08T10:29:34.828Z,99.90
2019-02-08T10:33:00.402Z,99.90
2019-02-08T10:36:11.616Z,99.90
2019-02-08T10:39:31.349Z,97.90
2019-02-08T10:42:47.977Z,98.30
2019-02-08T10:46:07.832Z,99.30
2019-02-08T10:49:30.569Z,98.80
2019-02-08T10:52:44.199Z,99.90
2019-02-08T10:55:46.628Z,99.30
2019-02-08T10:58:52.467Z,99.60
2019-02-08T11:01:46.952Z,98.20
2019-02-08T11:04:53.568Z,99.00
2019-02-08T11:08:15.745Z,99.90
2019-02-08T11:11:26.579Z,99.70
2019-02-08T11:14:32.666Z,99.90
2019-02-08T11:17:47.741Z,99.40
2019-02-08T11:20:19.231Z,99.10
2019-02-08T11:22:48.836Z,99.80
2019-02-08T11:25:18.515Z,98.90
2019-02-08T11:27:50.505Z,98.80
2019-02-08T11:30:28.931Z,98.90
2019-02-08T11:32:58.420Z,99.60
2019-02-08T11:35:27.993Z,98.50
2019-02-08T11:37:57.582Z,98.50
2019-02-08T11:40:28.657Z,99.10
2019-02-08T11:42:58.233Z,99.00
2019-02-08T11:45:27.760Z,99.90
2019-02-08T11:47:57.400Z,99.70
2019-02-08T11:50:26.984Z,99.90
2019-02-08T11:52:56.559Z,99.90
2019-02-08T11:55:26.179Z,99.90
2019-02-08T11:57:55.809Z,99.90
2019-02-08T12:00:39.402Z,99.80
2019-02-08T12:03:08.890Z,97.70
2019-02-08T12:05:38.620Z,95.50
2019-02-08T12:08:08.662Z,96.40
2019-02-08T12:10:38.205Z,96.00
2019-02-08T12:13:07.752Z,95.90
2019-02-08T12:15:37.653Z,95.80
2019-02-08T12:18:07.178Z,94.60
2019-02-08T12:20:36.864Z,95.20
2019-02-08T12:23:06.467Z,94.40
2019-02-08T12:25:36.058Z,94.30
2019-02-08T12:28:07.158Z,94.00
2019-02-08T12:30:38.530Z,93.70
2019-02-08T12:33:08.112Z,91.40
2019-02-08T12:35:37.691Z,91.80
2019-02-08T12:38:07.303Z,90.70
2019-02-08T12:40:36.862Z,90.60
2019-02-08T12:43:06.932Z,91.20
2019-02-08T12:45:36.560Z,91.30
2019-02-08T12:48:06.341Z,91.70
2019-02-08T12:50:36.005Z,91.80
2019-02-08T12:53:06.048Z,92.20
2019-02-08T12:55:35.527Z,91.80
2019-02-08T12:58:05.070Z,91.80
2019-02-08T13:00:34.737Z,92.80
2019-02-08T13:03:04.720Z,91.50
2019-02-08T13:05:37.205Z,91.00
2019-02-08T13:08:06.875Z,92.20
2019-02-08T13:10:37.003Z,92.70
2019-02-08T13:13:08.259Z,93.50
2019-02-08T13:15:37.972Z,93.10
2019-02-08T13:18:11.106Z,93.50
2019-02-08T13:20:41.731Z,91.50
2019-02-08T13:23:11.280Z,91.90
2019-02-08T13:25:40.966Z,92.70
2019-02-08T13:28:10.477Z,93.40
2019-02-08T13:30:39.968Z,93.00
2019-02-08T13:33:09.618Z,93.40
2019-02-08T13:35:39.188Z,92.80
2019-02-08T13:38:10.970Z,93.10
2019-02-08T13:40:40.525Z,93.00
2019-02-08T13:43:10.082Z,93.70
2019-02-08T13:45:50.362Z,94.60
2019-02-08T13:48:20.044Z,93.10
2019-02-08T13:50:49.890Z,94.50
2019-02-08T13:53:19.332Z,95.80
2019-02-08T13:55:48.829Z,96.30
2019-02-08T13:58:18.326Z,95.90
2019-02-08T14:00:47.977Z,97.30
2019-02-08T14:03:19.626Z,94.90
2019-02-08T14:05:49.159Z,96.30
2019-02-08T14:08:18.679Z,97.40
2019-02-08T14:10:48.273Z,97.20
2019-02-08T14:13:17.952Z,97.50
2019-02-08T14:15:47.641Z,98.20
2019-02-08T14:18:17.137Z,98.20
2019-02-08T14:20:46.727Z,96.80
2019-02-08T14:23:16.280Z,97.70
2019-02-08T14:25:45.877Z,98.40
2019-02-08T14:28:15.443Z,98.10
2019-02-08T14:30:45.970Z,98.50
2019-02-08T14:33:15.477Z,98.50
2019-02-08T14:35:45.036Z,97.40
2019-02-08T14:38:19.521Z,96.90
2019-02-08T14:40:49.044Z,97.80
2019-02-08T14:43:18.633Z,97.50
2019-02-08T14:45:48.282Z,97.70
2019-02-08T14:48:17.826Z,97.70
2019-02-08T14:50:47.482Z,98.60
2019-02-08T14:53:17.000Z,98.40
2019-02-08T14:55:46.600Z,98.20
2019-02-08T14:58:16.796Z,98.50
2019-02-08T15:00:46.490Z,99.10
2019-02-08T15:03:17.175Z,98.70
2019-02-08T15:05:46.671Z,99.10
2019-02-08T15:08:16.220Z,98.60
2019-02-08T15:10:47.348Z,99.20
2019-02-08T15:13:16.902Z,99.90
2019-02-08T15:15:46.522Z,99.90
2019-02-08T15:18:16.018Z,99.90
2019-02-08T15:20:45.915Z,99.90
2019-02-08T15:23:15.535Z,99.90
2019-02-08T15:25:50.333Z,99.90
2019-02-08T15:28:21.759Z,99.90
2019-02-08T15:30:51.323Z,99.90
2019-02-08T15:33:20.862Z,99.90
2019-02-08T15:35:50.404Z,99.90
2019-02-08T15:38:19.979Z,99.90
2019-02-08T15:40:52.384Z,99.90
2019-02-08T15:43:23.121Z,99.90
2019-02-08T15:46:00.962Z,99.90
2019-02-08T15:48:30.518Z,99.90
2019-02-08T15:51:00.179Z,99.90
2019-02-08T15:53:29.784Z,99.90
2019-02-08T15:56:05.795Z,99.90
2019-02-08T15:58:35.593Z,99.90
2019-02-08T16:01:08.804Z,99.90
2019-02-08T16:03:38.439Z,99.90
2019-02-08T16:06:08.453Z,99.90
2019-02-08T16:08:37.978Z,99.90
2019-02-08T16:11:07.626Z,99.90
2019-02-08T16:13:37.179Z,99.90
2019-02-08T16:16:07.777Z,99.90
2019-02-08T16:18:37.367Z,99.90
2019-02-08T16:21:07.017Z,99.90
2019-02-08T16:23:38.781Z,99.90
2019-02-08T16:26:08.227Z,99.90
2019-02-08T16:28:37.822Z,99.90
2019-02-08T16:31:07.979Z,99.90
2019-02-08T16:33:37.539Z,99.90
2019-02-08T16:36:07.404Z,99.90
2019-02-08T16:38:36.943Z,99.90
2019-02-08T16:41:06.614Z,99.90
2019-02-08T16:43:36.269Z,99.90
2019-02-08T16:46:05.907Z,99.90
2019-02-08T16:48:35.585Z,99.90
2019-02-08T16:51:05.687Z,99.90
2019-02-08T16:53:35.346Z,99.90
2019-02-08T16:56:05.211Z,99.90
2019-02-08T16:58:34.839Z,99.90
2019-02-08T17:01:05.271Z,99.90
2019-02-08T17:03:34.781Z,99.90
2019-02-08T17:06:04.643Z,99.90
2019-02-08T17:08:34.237Z,99.90
2019-02-08T17:11:03.809Z,99.90
2019-02-08T17:13:35.740Z,99.90
2019-02-08T17:16:06.123Z,99.90
2019-02-08T17:18:35.857Z,99.90
2019-02-08T17:21:08.316Z,99.90
2019-02-08T17:23:37.859Z,99.90
2019-02-08T17:26:07.979Z,99.90
2019-02-08T17:28:37.817Z,99.90
2019-02-08T17:31:09.613Z,99.90
2019-02-08T17:33:39.475Z,99.90
2019-02-08T17:36:09.535Z,99.90
2019-02-08T17:38:39.760Z,99.90
2019-02-08T17:41:10.357Z,99.90
2019-02-08T17:43:40.564Z,99.90
2019-02-08T17:46:10.960Z,99.90
2019-02-08T17:48:41.149Z,99.90
2019-02-08T17:51:11.428Z,99.90
2019-02-08T17:53:41.582Z,99.90
2019-02-08T17:56:11.656Z,99.90
2019-02-08T17:58:41.767Z,99.90
2019-02-08T18:01:12.137Z,99.90
2019-02-08T18:03:43.335Z,99.90
2019-02-08T18:06:16.607Z,99.90
2019-02-08T18:08:46.755Z,99.90
2019-02-08T18:11:16.860Z,99.90
2019-02-08T18:13:46.845Z,99.90
2019-02-08T18:16:16.860Z,99.90
2019-02-08T18:18:46.932Z,99.90
2019-02-08T18:21:17.084Z,99.90
2019-02-08T18:23:47.142Z,99.90
2019-02-08T18:26:17.103Z,99.90
2019-02-08T18:28:48.347Z,99.90
2019-02-08T18:31:18.422Z,99.90
2019-02-08T18:33:48.331Z,99.90
2019-02-08T18:36:18.118Z,99.90
2019-02-08T18:38:48.111Z,99.90
2019-02-08T18:41:18.153Z,99.90
2019-02-08T18:43:48.286Z,99.90
2019-02-08T18:46:18.723Z,99.90
2019-02-08T18:48:48.844Z,99.90
2019-02-08T18:51:24.138Z,99.90
2019-02-08T18:53:54.294Z,99.90
2019-02-08T18:56:27.468Z,99.90
2019-02-08T18:58:57.522Z,99.90
2019-02-08T19:01:27.752Z,99.90
2019-02-08T19:03:57.771Z,99.90
2019-02-08T19:06:28.161Z,99.90
2019-02-08T19:08:58.422Z,99.90
2019-02-08T19:11:28.827Z,99.90
2019-02-08T19:13:59.098Z,99.90
2019-02-08T19:16:29.420Z,99.90
2019-02-08T19:18:59.653Z,99.90
2019-02-08T19:21:29.926Z,99.90
2019-02-08T19:24:00.046Z,99.90
2019-02-08T19:26:30.191Z,99.90
2019-02-08T19:29:00.199Z,99.90
2019-02-08T19:31:30.453Z,99.90
2019-02-08T19:34:00.710Z,99.90
2019-02-08T19:36:30.946Z,99.90
2019-02-08T19:39:01.828Z,99.90
2019-02-08T19:41:32.038Z,99.90
2019-02-08T19:44:02.049Z,99.90
2019-02-08T19:46:32.202Z,99.90
2019-02-08T19:49:02.026Z,99.90
2019-02-08T19:51:32.737Z,99.90
2019-02-08T19:54:02.713Z,99.90
2019-02-08T19:56:32.866Z,99.90
2019-02-08T19:59:02.715Z,99.90
2019-02-08T20:01:32.820Z,99.90
2019-02-08T20:04:02.871Z,99.90
2019-02-08T20:06:32.821Z,99.90
2019-02-08T20:09:04.250Z,99.90
2019-02-08T20:11:34.327Z,99.90
2019-02-08T20:14:04.419Z,99.90
2019-02-08T20:16:35.857Z,99.90
2019-02-08T20:19:07.202Z,99.90
2019-02-08T20:21:37.298Z,99.90
2019-02-08T20:24:07.516Z,99.90
2019-02-08T20:26:37.794Z,99.90
2019-02-08T20:29:08.087Z,99.90
2019-02-08T20:31:38.104Z,99.90
2019-02-08T20:34:08.356Z,99.90
2019-02-08T20:36:38.456Z,99.90
2019-02-08T20:39:10.100Z,99.90
2019-02-08T20:41:40.222Z,99.90
2019-02-08T20:44:10.450Z,99.90
2019-02-08T20:46:40.530Z,99.90
2019-02-08T20:49:10.687Z,99.90
2019-02-08T20:51:41.358Z,99.90
2019-02-08T20:54:11.487Z,99.90
2019-02-08T20:56:41.595Z,99.90
2019-02-08T20:59:12.032Z,99.90
2019-02-08T21:01:42.188Z,99.90
2019-02-08T21:04:12.351Z,99.90
2019-02-08T21:06:43.124Z,99.90
2019-02-08T21:09:14.527Z,99.90
2019-02-08T21:11:44.782Z,99.90
2019-02-08T21:14:14.655Z,99.90
2019-02-08T21:16:44.751Z,99.90
2019-02-08T21:19:14.422Z,99.90
2019-02-08T21:21:44.110Z,99.90
2019-02-08T21:24:13.732Z,99.90
2019-02-08T21:26:43.269Z,99.90
2019-02-08T21:29:12.896Z,99.90
2019-02-08T21:31:43.340Z,99.90
2019-02-08T21:34:12.904Z,99.90
2019-02-08T21:36:42.411Z,99.90
2019-02-08T21:39:11.935Z,99.90
2019-02-08T21:41:41.520Z,99.90
2019-02-08T21:44:11.066Z,99.90
2019-02-08T21:46:40.787Z,99.90
2019-02-08T21:49:10.333Z,99.90
2019-02-08T21:51:39.803Z,99.90
2019-02-08T21:54:09.287Z,99.90
2019-02-08T21:56:38.725Z,99.90
2019-02-08T21:59:08.251Z,99.90
2019-02-08T22:01:37.760Z,99.90
2019-02-08T22:04:07.240Z,99.90
2019-02-08T22:06:37.411Z,99.90
2019-02-08T22:09:08.663Z,99.90
2019-02-08T22:11:38.059Z,99.90
2019-02-08T22:14:07.625Z,99.90
2019-02-08T22:16:37.057Z,99.90
2019-02-08T22:19:06.502Z,99.90
2019-02-08T22:21:35.967Z,99.90
2019-02-08T22:24:05.628Z,99.90
2019-02-08T22:26:35.050Z,99.90
2019-02-08T22:29:04.600Z,99.90
2019-02-08T22:31:34.184Z,99.90
2019-02-08T22:34:03.683Z,99.90
2019-02-08T22:36:33.107Z,99.90
2019-02-08T22:39:02.630Z,99.90
2019-02-08T22:41:32.101Z,99.90
2019-02-08T22:44:01.558Z,99.90
2019-02-08T22:46:30.945Z,99.90
2019-02-08T22:49:00.406Z,99.90
2019-02-08T22:51:29.875Z,99.90
2019-02-08T22:53:59.435Z,99.90
2019-02-08T22:56:28.912Z,99.90
2019-02-08T22:58:59.579Z,99.90
2019-02-08T23:01:33.689Z,99.90
2019-02-08T23:04:05.547Z,99.90
2019-02-08T23:06:35.237Z,99.90
2019-02-08T23:09:09.113Z,99.90
2019-02-08T23:11:40.071Z,99.90
2019-02-08T23:14:09.675Z,99.90
2019-02-08T23:16:39.120Z,99.90
2019-02-08T23:19:08.722Z,99.90
2019-02-08T23:21:38.162Z,99.90
2019-02-08T23:24:07.748Z,99.90
2019-02-08T23:26:37.149Z,99.90
2019-02-08T23:29:06.631Z,99.90
2019-02-08T23:31:36.102Z,99.90
2019-02-08T23:34:05.646Z,99.90
2019-02-08T23:36:35.119Z,99.90
2019-02-08T23:39:11.262Z,99.90
2019-02-08T23:41:40.705Z,99.90
2019-02-08T23:44:10.190Z,99.90
2019-02-08T23:46:39.633Z,99.90
2019-02-08T23:49:09.069Z,99.90
2019-02-08T23:51:38.565Z,99.90
2019-02-08T23:54:08.383Z,99.90
2019-02-08T23:56:37.879Z,99.90
2019-02-08T23:59:07.316Z,99.90
